Time;durP1;ratioP1;P1;durP2;ratioP2;P2;SDS_P1;SDS_P2;PMS_P1;PMS_P2;Temp;Humidity;BMP_temperature;BMP_pressure;BME280_temperature;BME280_humidity;BME280_pressure;Samples;Min_cycle;Max_cycle;Signal;HPM_P1;HPM_P2
2023/10/18 00:01:49;;;;;;;3.33;2.03;;;10.10;71.80;;;;;;5070859;28;20047;-69
2023/10/18 00:04:18;;;;;;;4.78;2.70;;;10.10;71.70;;;;;;5072615;28;20035;-69
2023/10/18 00:06:47;;;;;;;3.47;2.58;;;10.10;72.10;;;;;;5071169;28;20036;-67
2023/10/18 00:12:00;;;;;;;5.05;2.78;;;10.00;72.60;;;;;;5070830;28;20070;-67
2023/10/18 00:14:26;;;;;;;3.90;2.30;;;10.00;72.50;;;;;;5072606;28;20162;-66
2023/10/18 00:16:52;;;;;;;2.75;1.58;;;10.00;72.30;;;;;;5072580;28;20045;-67
2023/10/18 00:19:18;;;;;;;4.85;3.28;;;10.10;72.40;;;;;;5071445;28;20078;-67
2023/10/18 00:21:44;;;;;;;3.72;1.50;;;10.00;72.80;;;;;;5071473;28;20047;-67
2023/10/18 00:24:10;;;;;;;3.80;2.17;;;9.90;73.30;;;;;;5071526;28;20513;-67
2023/10/18 00:26:38;;;;;;;3.17;2.00;;;9.90;73.10;;;;;;5072406;28;20047;-67
2023/10/18 00:29:05;;;;;;;4.10;1.65;;;9.90;73.00;;;;;;5072682;28;20033;-67
2023/10/18 00:31:31;;;;;;;3.38;2.35;;;10.00;72.80;;;;;;5071697;28;20041;-67
2023/10/18 00:33:57;;;;;;;3.67;2.30;;;10.00;72.80;;;;;;5070976;28;20032;-67
2023/10/18 00:36:23;;;;;;;5.03;2.63;;;10.00;72.80;;;;;;5071973;28;20071;-67
2023/10/18 00:38:52;;;;;;;4.80;1.80;;;10.00;72.60;;;;;;5071292;28;20473;-67
2023/10/18 00:44:11;;;;;;;3.72;2.17;;;10.00;71.90;;;;;;5072460;28;20504;-69
2023/10/18 00:46:39;;;;;;;2.53;1.58;;;10.00;72.60;;;;;;5072112;28;20044;-68
2023/10/18 00:49:13;;;;;;;3.03;1.90;;;10.00;72.60;;;;;;5072379;28;20033;-69
2023/10/18 00:52:01;;;;;;;4.20;1.60;;;10.00;72.70;;;;;;5071329;28;20044;-69
2023/10/18 00:54:27;;;;;;;6.18;2.00;;;10.10;72.80;;;;;;5072322;28;20028;-67
2023/10/18 00:56:53;;;;;;;2.15;1.40;;;10.00;72.70;;;;;;5070806;28;20143;-67
2023/10/18 00:59:26;;;;;;;4.65;1.95;;;10.00;72.70;;;;;;5054511;28;20029;-67
2023/10/18 01:02:11;;;;;;;3.03;1.73;;;10.00;72.80;;;;;;5071499;28;20044;-67
2023/10/18 01:04:40;;;;;;;3.70;2.08;;;10.00;72.90;;;;;;5070905;28;20035;-67
2023/10/18 01:09:53;;;;;;;2.90;1.92;;;10.00;73.00;;;;;;5071189;28;20667;-67
2023/10/18 01:12:20;;;;;;;4.55;2.95;;;10.10;73.00;;;;;;5071473;28;20044;-67
2023/10/18 01:14:48;;;;;;;4.70;2.72;;;10.10;72.70;;;;;;5070721;28;20052;-67
2023/10/18 01:17:16;;;;;;;3.80;2.15;;;10.10;73.20;;;;;;5072084;28;20055;-67
2023/10/18 01:19:43;;;;;;;3.33;1.85;;;10.10;73.20;;;;;;5070727;28;20358;-67
2023/10/18 01:22:09;;;;;;;2.58;1.88;;;10.10;73.10;;;;;;5071328;28;20103;-67
2023/10/18 01:24:35;;;;;;;2.80;1.75;;;10.10;73.00;;;;;;5071857;28;20020;-67
2023/10/18 01:27:20;;;;;;;5.07;3.05;;;10.10;72.90;;;;;;5070468;28;20044;-67
2023/10/18 01:29:46;;;;;;;7.30;2.63;;;10.10;73.10;;;;;;5072098;28;20029;-69
2023/10/18 01:32:13;;;;;;;3.38;1.92;;;10.10;72.90;;;;;;5071307;28;20052;-69
2023/10/18 01:34:40;;;;;;;3.85;2.38;;;10.10;72.90;;;;;;5070214;28;20024;-67
2023/10/18 01:37:13;;;;;;;3.55;1.77;;;10.10;73.20;;;;;;5071849;28;20064;-67
2023/10/18 01:39:39;;;;;;;4.88;2.20;;;10.10;73.30;;;;;;5070940;28;20029;-67
2023/10/18 01:42:06;;;;;;;6.57;2.88;;;10.10;73.10;;;;;;5069635;28;20043;-67
2023/10/18 01:44:33;;;;;;;3.28;1.50;;;10.10;73.10;;;;;;5070374;28;20021;-66
2023/10/18 01:47:06;;;;;;;2.80;2.17;;;10.10;72.30;;;;;;5071620;28;20082;-67
2023/10/18 01:49:43;;;;;;;4.32;2.65;;;10.10;72.60;;;;;;5073877;28;20033;-67
2023/10/18 01:52:12;;;;;;;4.13;2.47;;;10.10;72.70;;;;;;5073064;28;20122;-69
2023/10/18 01:54:38;;;;;;;4.07;2.22;;;10.10;72.60;;;;;;5075150;28;20025;-69
2023/10/18 01:57:06;;;;;;;3.63;2.38;;;10.10;72.60;;;;;;5073739;28;20163;-69
2023/10/18 02:02:19;;;;;;;5.63;2.25;;;10.10;72.30;;;;;;5074519;28;20067;-69
2023/10/18 02:04:49;;;;;;;4.35;2.55;;;10.10;73.30;;;;;;5073633;28;20393;-69
2023/10/18 02:07:18;;;;;;;4.30;1.23;;;10.10;73.40;;;;;;5074903;28;20066;-69
2023/10/18 02:09:47;;;;;;;2.65;1.35;;;10.10;73.40;;;;;;5057643;28;20079;-69
2023/10/18 02:12:18;;;;;;;2.60;1.60;;;10.10;73.40;;;;;;5072885;28;20439;-69
2023/10/18 02:14:45;;;;;;;2.40;1.48;;;10.10;73.40;;;;;;5074998;28;20036;-69
2023/10/18 02:17:11;;;;;;;3.45;2.03;;;10.10;73.40;;;;;;5073223;28;20374;-69
2023/10/18 02:19:38;;;;;;;3.63;1.50;;;10.10;73.50;;;;;;5074930;28;20037;-68
2023/10/18 02:22:07;;;;;;;3.33;1.52;;;10.10;73.20;;;;;;5072436;28;20496;-69
2023/10/18 02:24:53;;;;;;;4.18;3.05;;;10.10;73.40;;;;;;5074729;28;20036;-69
2023/10/18 02:27:20;;;;;;;3.75;2.45;;;10.10;73.70;;;;;;5074624;28;20075;-69
2023/10/18 02:29:51;;;;;;;3.53;1.90;;;10.10;73.80;;;;;;5073602;28;20438;-69
2023/10/18 02:32:31;;;;;;;4.22;2.78;;;10.10;73.80;;;;;;5073453;28;20409;-69
2023/10/18 02:34:58;;;;;;;4.43;2.55;;;10.00;73.60;;;;;;5074241;28;20043;-68
2023/10/18 02:37:27;;;;;;;;;;;10.00;72.90;;;;;;5075178;28;20064;-69
2023/10/18 02:40:07;;;;;;;3.78;1.35;;;10.00;73.40;;;;;;5057136;28;20372;-69
2023/10/18 02:42:33;;;;;;;2.90;1.98;;;10.00;73.60;;;;;;5072959;28;20036;-69
2023/10/18 02:44:59;;;;;;;4.00;2.65;;;10.10;73.90;;;;;;5072915;28;20563;-69
2023/10/18 02:47:26;;;;;;;6.60;2.58;;;10.10;73.90;;;;;;5072443;28;20045;-69
2023/10/18 02:49:52;;;;;;;4.15;1.77;;;10.00;73.80;;;;;;5074461;28;20082;-69
2023/10/18 02:52:19;;;;;;;2.63;1.50;;;10.00;73.80;;;;;;5073239;28;20444;-69
2023/10/18 02:54:48;;;;;;;4.05;1.50;;;10.00;73.60;;;;;;5074283;28;20070;-69
2023/10/18 02:57:15;;;;;;;3.20;2.15;;;10.00;73.60;;;;;;5072660;28;20392;-68
2023/10/18 02:59:42;;;;;;;;;;;10.00;73.20;;;;;;5056620;28;20424;-69
2023/10/18 03:02:14;;;;;;;4.30;2.65;;;10.00;73.00;;;;;;5073311;28;20276;-68
2023/10/18 03:04:44;;;;;;;5.32;2.75;;;10.00;73.50;;;;;;5072671;28;20094;-69
2023/10/18 03:07:13;;;;;;;3.63;1.77;;;10.00;72.80;;;;;;5072289;28;20096;-69
2023/10/18 03:09:40;;;;;;;7.03;1.88;;;10.00;73.40;;;;;;5072934;28;20657;-68
2023/10/18 03:12:13;;;;;;;2.38;1.48;;;10.00;73.20;;;;;;5071695;28;20082;-69
2023/10/18 03:14:41;;;;;;;5.40;2.72;;;10.00;73.10;;;;;;5056999;28;20043;-69
2023/10/18 03:22:31;;;;;;;3.67;2.30;;;10.00;73.10;;;;;;5071974;28;20098;-69
2023/10/18 03:25:01;;;;;;;3.15;1.80;;;10.00;73.20;;;;;;5073395;28;20433;-68
2023/10/18 03:27:33;;;;;;;4.80;2.72;;;10.10;73.20;;;;;;5072305;28;20045;-69
2023/10/18 03:30:11;;;;;;;3.20;1.73;;;10.10;73.10;;;;;;5072621;28;20039;-69
2023/10/18 03:32:38;;;;;;;7.88;3.08;;;10.10;73.10;;;;;;5071955;28;20591;-69
2023/10/18 03:35:09;;;;;;;3.03;2.00;;;10.10;73.10;;;;;;5072798;28;20060;-69
2023/10/18 03:37:38;;;;;;;3.88;2.15;;;10.10;72.60;;;;;;5072532;28;20572;-68
2023/10/18 03:40:24;;;;;;;4.70;3.22;;;10.10;73.10;;;;;;5072655;28;20385;-69
2023/10/18 03:42:51;;;;;;;4.05;2.47;;;10.10;72.90;;;;;;5072436;28;20033;-69
2023/10/18 03:45:58;;;;;;;3.35;1.67;;;10.10;73.20;;;;;;5071301;28;20021;-68
2023/10/18 03:48:23;;;;;;;3.55;1.85;;;10.10;73.10;;;;;;5073507;28;20036;-69
2023/10/18 03:50:49;;;;;;;4.93;2.90;;;10.10;73.10;;;;;;5071932;28;20041;-68
2023/10/18 03:53:18;;;;;;;6.35;2.28;;;10.20;73.30;;;;;;5072916;28;20052;-69
2023/10/18 03:55:45;;;;;;;3.08;2.00;;;10.10;73.40;;;;;;5054962;28;20032;-68
2023/10/18 03:58:17;;;;;;;5.80;3.20;;;10.10;73.50;;;;;;5071103;28;20059;-68
2023/10/18 04:03:32;;;;;;;2.80;1.52;;;10.10;73.50;;;;;;5052045;28;20049;-69
2023/10/18 04:06:21;;;;;;;4.78;2.63;;;10.10;73.50;;;;;;5052317;28;20095;-69
2023/10/18 04:08:47;;;;;;;3.60;2.22;;;10.10;73.60;;;;;;5051917;28;20037;-69
2023/10/18 04:11:13;;;;;;;;;;;10.10;73.00;;;;;;5052041;28;20063;-69
2023/10/18 04:13:39;;;;;;;2.83;1.52;;;10.10;73.50;;;;;;5052871;28;20010;-68
2023/10/18 04:16:11;;;;;;;;;;;10.10;73.50;;;;;;5052844;28;20037;-69
2023/10/18 04:18:41;;;;;;;3.05;1.92;;;10.10;73.50;;;;;;5051557;28;19913;-69
2023/10/18 04:21:13;;;;;;;2.88;1.95;;;10.00;73.40;;;;;;5050410;28;20045;-69
2023/10/18 04:23:41;;;;;;;3.08;2.15;;;10.10;73.70;;;;;;5052658;28;20058;-68
2023/10/18 04:26:18;;;;;;;1.83;1.42;;;10.10;73.70;;;;;;5050693;28;20036;-69
2023/10/18 04:28:45;;;;;;;5.15;2.95;;;10.00;73.50;;;;;;5051406;28;20199;-69
2023/10/18 04:31:12;;;;;;;6.78;2.05;;;10.00;73.10;;;;;;5059272;28;20102;-68
2023/10/18 04:36:23;;;;;;;7.75;2.90;;;9.90;73.30;;;;;;5053393;28;20052;-69
2023/10/18 04:38:51;;;;;;;;;;;9.80;74.10;;;;;;5051570;28;20144;-69
2023/10/18 04:41:23;;;;;;;2.92;1.73;;;9.80;74.10;;;;;;5051362;28;19931;-69
2023/10/18 04:43:57;;;;;;;7.53;2.75;;;9.70;74.30;;;;;;5052167;28;20029;-68
2023/10/18 04:46:26;;;;;;;3.90;1.75;;;9.60;74.50;;;;;;5050460;28;20051;-69
2023/10/18 04:51:27;;;;;;;4.35;2.50;;;9.40;75.00;;;;;;5051215;28;20081;-69
2023/10/18 04:56:56;;;;;;;2.97;1.80;;;9.20;75.00;;;;;;5050433;28;20516;-69
2023/10/18 04:59:44;;;;;;;4.18;2.08;;;9.20;75.20;;;;;;5052320;28;20061;-69
2023/10/18 05:02:17;;;;;;;2.33;1.67;;;9.10;75.30;;;;;;5051715;28;20103;-69
2023/10/18 05:04:44;;;;;;;4.63;2.35;;;9.00;74.70;;;;;;5050805;28;20040;-69
2023/10/18 05:09:43;;;;;;;4.35;2.40;;;8.90;75.40;;;;;;5050905;28;20112;-69
2023/10/18 05:12:28;;;;;;;3.15;1.50;;;8.90;75.30;;;;;;5050033;28;20079;-69
2023/10/18 05:17:43;;;;;;;2.80;1.63;;;8.70;75.10;;;;;;5050582;28;20041;-69
2023/10/18 05:23:00;;;;;;;4.03;2.65;;;8.70;75.20;;;;;;5052076;28;20045;-69
2023/10/18 05:25:34;;;;;;;2.92;1.65;;;8.60;75.20;;;;;;5055119;28;20048;-69
2023/10/18 05:28:00;;;;;;;2.10;1.30;;;8.60;75.30;;;;;;5054770;28;20025;-69
2023/10/18 05:31:27;;;;;;;3.45;1.80;;;8.50;75.40;;;;;;5053822;28;20326;-69
2023/10/18 05:33:49;;;;;;;8.25;3.20;;;8.50;75.50;;;;;;5054400;28;20037;-69
2023/10/18 05:38:48;;;;;;;7.57;4.25;;;8.50;75.30;;;;;;5054843;28;20120;-69
2023/10/18 05:41:45;;;;;;;7.93;3.30;;;8.40;75.30;;;;;;5054773;28;20041;-69
2023/10/18 05:44:15;;;;;;;6.78;5.20;;;8.40;75.40;;;;;;5055597;28;20055;-69
2023/10/18 05:46:41;;;;;;;7.13;3.35;;;8.40;75.00;;;;;;5053613;28;20048;-69
2023/10/18 05:49:13;;;;;;;8.18;4.25;;;8.40;75.00;;;;;;5055467;28;20076;-69
2023/10/18 05:51:51;;;;;;;4.20;2.65;;;8.40;74.80;;;;;;5054376;28;20053;-69
2023/10/18 05:54:19;;;;;;;5.85;3.92;;;8.40;74.80;;;;;;5055521;28;20021;-69
2023/10/18 05:56:53;;;;;;;4.18;3.20;;;8.50;74.70;;;;;;5053707;28;20033;-69
2023/10/18 06:01:58;;;;;;;5.00;3.42;;;8.70;74.00;;;;;;5053025;28;20047;-69
2023/10/18 06:04:25;;;;;;;6.40;3.85;;;8.70;74.30;;;;;;5053948;28;20021;-69
2023/10/18 06:07:04;;;;;;;5.57;3.40;;;8.80;74.20;;;;;;5036869;28;20037;-69
2023/10/18 06:09:44;;;;;;;5.65;3.47;;;8.80;74.00;;;;;;5054194;28;20032;-69
2023/10/18 06:12:14;;;;;;;4.38;3.25;;;8.90;73.40;;;;;;5052965;28;20264;-69
2023/10/18 06:14:44;;;;;;;4.93;2.25;;;8.90;73.30;;;;;;5053916;28;20552;-69
2023/10/18 06:17:19;;;;;;;5.00;2.72;;;9.00;73.70;;;;;;5054783;28;20123;-69
2023/10/18 06:19:47;;;;;;;4.55;3.03;;;9.00;73.50;;;;;;5053843;28;20033;-69
2023/10/18 06:25:00;;;;;;;5.35;3.00;;;9.00;73.50;;;;;;5054788;28;20032;-69
2023/10/18 06:27:28;;;;;;;8.18;4.57;;;9.10;73.80;;;;;;5054714;28;20382;-69
2023/10/18 06:29:54;;;;;;;4.57;3.17;;;9.10;73.60;;;;;;5054717;28;20075;-69
2023/10/18 06:32:27;;;;;;;7.10;3.10;;;9.10;73.80;;;;;;5052697;28;20650;-69
2023/10/18 06:34:57;;;;;;;4.78;2.80;;;9.10;73.30;;;;;;5037088;28;20025;-69
2023/10/18 06:37:24;;;;;;;5.13;2.22;;;9.20;73.90;;;;;;5053099;28;20128;-69
2023/10/18 06:39:54;;;;;;;4.10;2.45;;;9.20;73.90;;;;;;5053356;28;20033;-68
2023/10/18 06:42:23;;;;;;;4.03;2.67;;;9.30;73.90;;;;;;5052484;28;20398;-69
2023/10/18 06:44:49;;;;;;;2.35;1.60;;;9.30;73.30;;;;;;5054366;28;20043;-69
2023/10/18 06:47:15;;;;;;;2.60;2.05;;;9.40;73.90;;;;;;5052633;28;20033;-69
2023/10/18 06:52:40;;;;;;;3.15;2.22;;;9.50;73.00;;;;;;5053362;28;20575;-69
2023/10/18 06:55:07;;;;;;;6.45;2.85;;;9.60;73.60;;;;;;5038209;28;20051;-69
2023/10/18 06:57:36;;;;;;;4.30;2.45;;;9.70;72.90;;;;;;5054626;28;20037;-69
2023/10/18 07:00:07;;;;;;;5.53;3.28;;;9.70;73.30;;;;;;5054218;28;20389;-69
2023/10/18 07:02:33;;;;;;;4.63;3.38;;;9.80;73.10;;;;;;5036586;28;20436;-69
2023/10/18 07:05:00;;;;;;;4.72;2.90;;;9.90;73.20;;;;;;5052612;28;20040;-69
2023/10/18 07:07:27;;;;;;;3.60;2.15;;;10.00;73.10;;;;;;5054072;28;20036;-69
2023/10/18 07:09:53;;;;;;;4.05;2.78;;;10.10;72.80;;;;;;5053960;28;20033;-69
2023/10/18 07:12:26;;;;;;;3.67;2.08;;;10.20;72.60;;;;;;5052403;28;20044;-69
2023/10/18 07:15:16;;;;;;;4.28;2.90;;;10.30;72.50;;;;;;5052855;28;20477;-69
2023/10/18 07:17:46;;;;;;;3.80;2.38;;;10.30;72.10;;;;;;5053651;28;20512;-69
2023/10/18 07:20:15;;;;;;;3.33;2.63;;;10.50;71.70;;;;;;5051799;28;20485;-69
2023/10/18 07:22:46;;;;;;;3.67;2.47;;;10.60;71.20;;;;;;5053459;28;20136;-69
2023/10/18 07:25:20;;;;;;;5.35;3.03;;;10.70;70.70;;;;;;5052213;28;20033;-69
2023/10/18 07:27:46;;;;;;;4.82;3.30;;;10.80;70.40;;;;;;5052473;28;20041;-68
2023/10/18 07:30:15;;;;;;;2.50;1.38;;;10.90;70.30;;;;;;5052763;28;20079;-69
2023/10/18 07:32:47;;;;;;;4.53;2.22;;;11.00;70.00;;;;;;5052329;28;20429;-69
2023/10/18 07:35:26;;;;;;;5.30;3.28;;;11.10;69.10;;;;;;5052717;28;20029;-69
2023/10/18 07:38:11;;;;;;;2.60;1.85;;;11.20;69.20;;;;;;5052456;28;20051;-69
2023/10/18 07:40:41;;;;;;;2.33;1.08;;;11.30;68.90;;;;;;5052306;28;20239;-69
2023/10/18 07:43:12;;;;;;;4.65;2.80;;;11.30;67.80;;;;;;5052016;28;20040;-69
2023/10/18 07:45:39;;;;;;;5.80;2.00;;;11.40;68.30;;;;;;5049899;28;20064;-69
2023/10/18 07:48:06;;;;;;;2.67;2.03;;;11.50;67.90;;;;;;5052794;28;20040;-69
2023/10/18 07:53:20;;;;;;;3.10;1.45;;;11.80;67.20;;;;;;5053220;28;20211;-69
2023/10/18 07:56:06;;;;;;;5.80;2.97;;;12.00;65.70;;;;;;5052508;28;20029;-69
2023/10/18 07:58:32;;;;;;;3.75;2.97;;;12.20;66.10;;;;;;5053100;28;20063;-69
2023/10/18 08:03:29;;;;;;;4.40;2.47;;;13.00;63.70;;;;;;5073078;28;20501;-69
2023/10/18 08:05:56;;;;;;;3.17;1.52;;;13.40;59.60;;;;;;5070978;28;20036;-69
2023/10/18 08:08:24;;;;;;;4.45;2.35;;;14.30;57.00;;;;;;5071714;28;20060;-69
2023/10/18 08:10:55;;;;;;;3.60;2.40;;;15.00;55.20;;;;;;5063964;28;20044;-69
2023/10/18 08:13:28;;;;;;;1.20;0.90;;;16.00;53.30;;;;;;5051687;28;20485;-69
2023/10/18 08:16:27;;;;;;;2.03;0.93;;;17.00;51.20;;;;;;5052205;28;20032;-69
2023/10/18 08:18:53;;;;;;;6.32;2.33;;;17.40;48.80;;;;;;5052038;28;20032;-69
2023/10/18 08:21:38;;;;;;;3.30;1.25;;;17.80;48.20;;;;;;5062127;28;20102;-69
2023/10/18 08:24:25;;;;;;;2.45;1.75;;;18.80;46.40;;;;;;5072590;28;20033;-69
2023/10/18 08:26:51;;;;;;;4.25;1.27;;;19.60;43.80;;;;;;5071264;28;20044;-69
2023/10/18 08:29:18;;;;;;;;;;;20.70;42.20;;;;;;5073362;28;20036;-69
2023/10/18 08:31:48;;;;;;;2.08;1.38;;;21.40;39.40;;;;;;5071728;28;19916;-66
2023/10/18 08:37:06;;;;;;;2.00;1.35;;;22.50;37.20;;;;;;5072396;28;20055;-67
2023/10/18 08:39:32;;;;;;;2.08;1.20;;;23.20;35.80;;;;;;5072751;28;20047;-67
2023/10/18 08:42:39;;;;;;;3.03;1.27;;;23.00;35.30;;;;;;5071751;28;20036;-67
2023/10/18 08:45:19;;;;;;;3.13;2.65;;;23.20;33.80;;;;;;5072479;28;20094;-67
2023/10/18 08:47:49;;;;;;;1.38;1.05;;;23.50;33.00;;;;;;5072226;28;20029;-67
2023/10/18 08:50:18;;;;;;;3.20;2.53;;;24.00;32.40;;;;;;5071501;28;20033;-67
2023/10/18 08:52:49;;;;;;;2.10;1.25;;;23.40;31.20;;;;;;5070976;28;20076;-67
2023/10/18 08:58:08;;;;;;;2.92;1.38;;;22.00;33.80;;;;;;5072647;28;20503;-69
2023/10/18 09:03:03;;;;;;;1.83;1.02;;;21.90;32.30;;;;;;5075014;28;20045;-67
2023/10/18 09:05:31;;;;;;;2.35;1.38;;;21.50;34.50;;;;;;5074411;28;20029;-66
2023/10/18 09:08:05;;;;;;;0.98;0.60;;;20.90;35.00;;;;;;5075017;28;20056;-67
2023/10/18 09:18:22;;;;;;;1.52;1.05;;;19.40;38.00;;;;;;5051881;28;20044;-67
2023/10/18 09:20:49;;;;;;;1.38;0.63;;;19.20;38.50;;;;;;5054924;28;20496;-67
2023/10/18 09:23:20;;;;;;;2.08;1.15;;;19.10;39.00;;;;;;5055856;28;20033;-69
2023/10/18 09:28:35;;;;;;;3.15;1.45;;;18.60;38.70;;;;;;5056026;28;20036;-69
2023/10/18 09:31:11;;;;;;;4.25;2.00;;;18.60;39.40;;;;;;5053543;28;20061;-69
2023/10/18 09:33:40;;;;;;;2.35;0.88;;;18.40;38.70;;;;;;5051830;28;20029;-66
2023/10/18 09:36:29;;;;;;;1.42;1.13;;;18.30;39.50;;;;;;5055390;28;20041;-69
2023/10/18 09:38:57;;;;;;;2.35;1.25;;;18.20;38.90;;;;;;5050135;28;20037;-69
2023/10/18 09:41:27;;;;;;;2.90;1.05;;;18.20;39.30;;;;;;5043057;28;20115;-67
2023/10/18 09:43:53;;;;;;;1.50;1.08;;;18.20;39.10;;;;;;5075428;28;20469;-69
2023/10/18 09:46:19;;;;;;;1.38;1.25;;;18.30;39.30;;;;;;5075238;28;20441;-66
2023/10/18 09:48:46;;;;;;;;;;;18.30;39.20;;;;;;5076072;28;20040;-66
2023/10/18 09:51:21;;;;;;;;;;;18.30;39.10;;;;;;5063896;28;19936;-67
2023/10/18 09:54:07;;;;;;;2.22;0.93;;;18.40;39.10;;;;;;5054261;28;20007;-69
2023/10/18 09:56:35;;;;;;;2.20;1.52;;;18.20;38.70;;;;;;5037530;28;20083;-69
2023/10/18 09:59:15;;;;;;;1.55;1.17;;;18.30;39.10;;;;;;5054169;28;20044;-69
2023/10/18 10:04:14;;;;;;;1.67;0.77;;;18.30;39.10;;;;;;5075136;28;20068;-68
2023/10/18 10:06:47;;;;;;;1.50;1.08;;;18.20;38.40;;;;;;5074810;28;20043;-66
2023/10/18 10:09:15;;;;;;;1.33;1.00;;;18.00;38.60;;;;;;5073459;28;20036;-67
2023/10/18 10:12:00;;;;;;;2.83;1.38;;;17.90;38.60;;;;;;5056101;28;20123;-67
2023/10/18 10:14:29;;;;;;;1.80;0.82;;;17.80;40.20;;;;;;5075104;28;20037;-67
2023/10/18 10:17:01;;;;;;;0.43;0.32;;;17.70;39.70;;;;;;5073421;28;20035;-67
2023/10/18 10:19:53;;;;;;;1.13;0.65;;;17.60;39.60;;;;;;5073847;28;20032;-67
2023/10/18 10:25:11;;;;;;;1.08;0.73;;;17.50;39.40;;;;;;5053798;28;20091;-67
2023/10/18 10:33:12;;;;;;;2.70;1.05;;;17.80;40.20;;;;;;5074983;28;20076;-67
2023/10/18 10:36:05;;;;;;;1.55;0.93;;;17.90;38.90;;;;;;5072653;28;20036;-67
2023/10/18 10:38:33;;;;;;;2.55;1.17;;;18.10;39.40;;;;;;5073601;28;20495;-67
2023/10/18 10:44:23;;;;;;;2.50;1.58;;;18.20;39.20;;;;;;5053159;28;20512;-67
2023/10/18 10:46:53;;;;;;;1.48;1.13;;;18.40;37.10;;;;;;5052775;28;20048;-67
2023/10/18 10:49:58;;;;;;;1.50;0.88;;;18.60;37.00;;;;;;5053411;28;20029;-67
2023/10/18 10:52:44;;;;;;;2.00;0.60;;;18.40;37.80;;;;;;5071594;28;20076;-67
2023/10/18 10:55:29;;;;;;;1.00;0.57;;;18.20;37.70;;;;;;5072503;28;20032;-67
2023/10/18 10:57:55;;;;;;;3.33;1.25;;;18.30;37.70;;;;;;5072937;28;20036;-67
2023/10/18 11:03:53;;;;;;;2.50;1.95;;;18.40;36.50;;;;;;5054421;28;20047;-67
2023/10/18 11:06:57;;;;;;;1.52;0.73;;;18.70;36.60;;;;;;5044960;28;20533;-67
2023/10/18 11:09:39;;;;;;;3.28;1.23;;;18.90;35.80;;;;;;5033878;28;20029;-67
2023/10/18 11:12:18;;;;;;;1.27;1.05;;;18.90;35.30;;;;;;5041153;28;20046;-67
2023/10/18 11:14:52;;;;;;;0.82;0.52;;;18.80;33.80;;;;;;5047358;28;20037;-67
2023/10/18 11:17:23;;;;;;;0.95;0.55;;;18.80;33.70;;;;;;5043882;28;20033;-67
2023/10/18 11:19:51;;;;;;;0.90;0.68;;;18.70;34.00;;;;;;5036594;28;20029;-67
2023/10/18 11:25:07;;;;;;;0.38;0.38;;;18.80;33.80;;;;;;5052460;28;20440;-67
2023/10/18 11:27:37;;;;;;;1.90;1.13;;;18.80;32.70;;;;;;5050386;28;20099;-67
2023/10/18 11:30:15;;;;;;;1.85;1.10;;;18.80;33.90;;;;;;5038566;28;20031;-68
2023/10/18 11:33:00;;;;;;;0.52;0.52;;;18.80;33.90;;;;;;5039897;28;20065;-67
2023/10/18 11:35:42;;;;;;;0.40;0.40;;;18.90;34.30;;;;;;5042391;28;20028;-67
2023/10/18 11:38:27;;;;;;;1.73;0.95;;;19.20;34.00;;;;;;5039306;28;20401;-67
2023/10/18 11:40:53;;;;;;;1.90;1.42;;;19.40;34.30;;;;;;5033329;28;20040;-67
2023/10/18 11:43:39;;;;;;;2.33;1.00;;;19.30;32.70;;;;;;5033463;28;20091;-67
2023/10/18 11:46:24;;;;;;;0.95;0.85;;;19.40;34.20;;;;;;5032794;28;20102;-67
2023/10/18 11:48:55;;;;;;;2.00;0.73;;;19.60;34.20;;;;;;5033360;28;20429;-67
2023/10/18 11:51:21;;;;;;;1.48;0.95;;;19.60;34.40;;;;;;5031011;28;20049;-67
2023/10/18 11:53:53;;;;;;;;;;;19.90;34.80;;;;;;5033810;28;20025;-67
2023/10/18 11:56:19;;;;;;;2.10;1.15;;;20.30;34.30;;;;;;5031491;28;20317;-67
2023/10/18 11:59:01;;;;;;;2.13;1.05;;;20.40;33.90;;;;;;5033483;28;20079;-67
2023/10/18 12:01:33;;;;;;;4.45;1.40;;;20.30;34.40;;;;;;5032170;28;20064;-67
2023/10/18 12:04:00;;;;;;;0.70;0.43;;;20.80;33.40;;;;;;5031693;28;20041;-67
2023/10/18 12:06:27;;;;;;;1.23;0.80;;;22.60;30.10;;;;;;5031247;28;20038;-67
2023/10/18 12:11:37;;;;;;;1.30;0.57;;;22.40;29.90;;;;;;5032146;28;20042;-67
2023/10/18 12:14:08;;;;;;;1.55;0.93;;;21.80;31.30;;;;;;5031645;28;20030;-67
2023/10/18 12:16:34;;;;;;;1.10;0.60;;;21.60;30.10;;;;;;5031138;28;20041;-67
2023/10/18 12:19:00;;;;;;;1.05;0.70;;;21.10;30.70;;;;;;5031633;28;20064;-67
2023/10/18 12:21:30;;;;;;;1.33;0.82;;;20.70;32.60;;;;;;5032011;28;20041;-67
2023/10/18 12:23:57;;;;;;;6.10;1.15;;;20.50;32.80;;;;;;5031492;28;20025;-67
2023/10/18 12:26:24;;;;;;;1.00;0.77;;;20.40;33.50;;;;;;5032783;28;20095;-67
2023/10/18 12:28:52;;;;;;;4.93;3.72;;;20.80;33.10;;;;;;5040898;28;20164;-67
2023/10/18 12:31:26;;;;;;;0.90;0.60;;;21.10;33.50;;;;;;5019583;28;20482;-67
2023/10/18 12:33:58;;;;;;;2.10;0.98;;;22.20;30.30;;;;;;5032066;28;20116;-67
2023/10/18 12:39:09;;;;;;;1.48;0.98;;;24.30;27.80;;;;;;5031675;28;20036;-67
2023/10/18 12:41:42;;;;;;;;;;;23.60;28.30;;;;;;5032142;28;20041;-67
2023/10/18 12:44:11;;;;;;;1.55;0.90;;;23.70;28.40;;;;;;5032501;28;20413;-67
2023/10/18 12:46:38;;;;;;;4.00;1.55;;;23.50;28.80;;;;;;5032077;28;20071;-67
2023/10/18 12:49:10;;;;;;;2.38;1.00;;;23.70;28.70;;;;;;5031418;28;20033;-67
2023/10/18 12:51:42;;;;;;;2.92;0.90;;;23.50;29.10;;;;;;5030307;28;20455;-67
2023/10/18 12:54:19;;;;;;;0.90;0.60;;;24.40;28.00;;;;;;5031412;28;20050;-67
2023/10/18 12:59:52;;;;;;;3.15;2.22;;;23.20;28.90;;;;;;5031528;28;20087;-67
2023/10/18 13:02:46;;;;;;;1.17;0.82;;;22.70;29.50;;;;;;5031657;28;20037;-67
2023/10/18 13:05:01;;;;;;;1.85;1.10;;;22.00;30.50;;;;;;5032381;28;20037;-67
2023/10/18 13:07:31;;;;;;;0.70;0.43;;;21.40;32.00;;;;;;5032384;28;20494;-66
2023/10/18 13:09:57;;;;;;;0.85;0.60;;;21.00;32.80;;;;;;5032445;28;20184;-67
2023/10/18 13:12:23;;;;;;;;;;;20.70;33.50;;;;;;5032234;28;20482;-67
2023/10/18 13:14:49;;;;;;;0.50;0.32;;;20.60;33.70;;;;;;5030989;28;20288;-67
2023/10/18 13:17:16;;;;;;;2.45;1.33;;;20.70;34.20;;;;;;5032189;28;20084;-67
2023/10/18 13:19:44;;;;;;;1.85;0.95;;;20.60;34.30;;;;;;5032169;28;20493;-66
2023/10/18 13:22:19;;;;;;;1.75;1.23;;;20.30;35.00;;;;;;5029955;28;20048;-67
2023/10/18 13:24:45;;;;;;;1.42;1.00;;;19.90;36.00;;;;;;5031050;28;20026;-67
2023/10/18 13:27:17;;;;;;;0.95;0.55;;;19.60;35.70;;;;;;5030462;28;20132;-69
2023/10/18 13:30:00;;;;;;;2.42;0.70;;;19.40;37.10;;;;;;5031008;28;20080;-69
2023/10/18 13:32:26;;;;;;;0.95;0.60;;;19.20;37.90;;;;;;5029797;28;20041;-67
2023/10/18 13:34:52;;;;;;;1.45;0.80;;;19.00;37.20;;;;;;5030401;28;20065;-67
2023/10/18 13:37:23;;;;;;;1.65;0.95;;;18.90;37.60;;;;;;5032006;28;20052;-67
2023/10/18 13:39:51;;;;;;;1.33;1.05;;;18.80;38.20;;;;;;5015123;28;20034;-69
2023/10/18 13:42:19;;;;;;;1.85;1.33;;;18.60;38.50;;;;;;5031255;28;20045;-69
2023/10/18 13:44:45;;;;;;;1.00;0.77;;;18.50;38.80;;;;;;5032652;28;20064;-69
2023/10/18 13:49:57;;;;;;;1.25;0.65;;;18.10;40.30;;;;;;5035693;28;20494;-69
2023/10/18 13:52:25;;;;;;;0.75;0.50;;;17.90;40.60;;;;;;5034470;28;20059;-69
2023/10/18 13:54:52;;;;;;;1.20;1.00;;;17.80;41.20;;;;;;5035515;28;20088;-67
2023/10/18 13:57:18;;;;;;;3.88;1.20;;;17.70;41.90;;;;;;5035243;28;20122;-69
2023/10/18 13:59:44;;;;;;;1.48;0.80;;;17.70;41.20;;;;;;5035478;28;20030;-69
2023/10/18 14:02:17;;;;;;;3.00;1.50;;;17.70;41.50;;;;;;5034420;28;20033;-67
2023/10/18 14:04:46;;;;;;;1.63;0.70;;;17.70;41.60;;;;;;5035167;28;20041;-67
2023/10/18 14:07:12;;;;;;;1.17;0.85;;;17.60;41.70;;;;;;5035231;28;20048;-67
2023/10/18 14:09:38;;;;;;;;;;;17.50;42.40;;;;;;5034622;28;20041;-67
2023/10/18 14:12:05;;;;;;;1.60;1.10;;;17.40;42.00;;;;;;5034341;28;20413;-67
2023/10/18 14:14:32;;;;;;;1.55;1.20;;;17.30;42.70;;;;;;5035125;28;20025;-67
2023/10/18 14:16:58;;;;;;;1.55;1.13;;;17.20;43.50;;;;;;5016890;28;20037;-67
2023/10/18 14:19:24;;;;;;;1.80;1.05;;;17.10;43.60;;;;;;5035106;28;20367;-67
2023/10/18 14:21:51;;;;;;;1.38;0.73;;;17.00;43.90;;;;;;5044759;28;20041;-67
2023/10/18 14:24:18;;;;;;;;;;;16.90;43.90;;;;;;5054010;28;20056;-67
2023/10/18 14:26:44;;;;;;;1.85;0.50;;;16.80;43.70;;;;;;5050515;28;19958;-67
2023/10/18 14:29:11;;;;;;;1.50;1.00;;;16.80;44.40;;;;;;5021119;28;20402;-67
2023/10/18 14:31:38;;;;;;;1.45;0.98;;;16.60;44.70;;;;;;5034057;28;20037;-67
2023/10/18 14:34:04;;;;;;;4.25;1.52;;;16.60;44.50;;;;;;5016648;28;20393;-67
2023/10/18 14:36:32;;;;;;;4.78;1.60;;;16.60;45.60;;;;;;5034299;28;20041;-67
2023/10/18 14:38:58;;;;;;;3.63;1.80;;;16.50;46.10;;;;;;5034755;28;20030;-67
2023/10/18 14:41:24;;;;;;;1.30;0.93;;;16.50;46.10;;;;;;5032474;28;20086;-67
2023/10/18 14:43:51;;;;;;;1.48;0.70;;;16.40;46.80;;;;;;5035457;28;20398;-67
2023/10/18 14:46:37;;;;;;;1.98;1.13;;;16.40;47.00;;;;;;5019742;28;20056;-67
2023/10/18 14:49:03;;;;;;;2.90;1.60;;;16.30;47.00;;;;;;5052209;28;20436;-67
2023/10/18 14:51:30;;;;;;;2.78;1.92;;;16.20;46.90;;;;;;5052091;28;20060;-67
2023/10/18 14:53:57;;;;;;;2.67;1.25;;;16.10;47.20;;;;;;5036323;28;20032;-67
2023/10/18 14:56:23;;;;;;;1.35;0.93;;;16.10;47.90;;;;;;5032272;28;20139;-67